Time;durP1;ratioP1;P1;durP2;ratioP2;P2;SDS_P1;SDS_P2;PMS_P1;PMS_P2;Temp;Humidity;BMP_temperature;BMP_pressure;BME280_temperature;BME280_humidity;BME280_pressure;Samples;Min_cycle;Max_cycle;Signal;HPM_P1;HPM_P2
2023/05/21 00:01:31;;;;;;;;;;;;;;;10.06;79.49;102118.63;5045691;28;19927;-73
2023/05/21 00:03:58;;;;;;;;;;;;;;;10.00;80.56;102122.22;5032281;28;19937;-73
2023/05/21 00:06:23;;;;;;;;;;;;;;;9.95;79.47;102111.41;5063116;28;19991;-72
2023/05/21 00:08:49;;;;;;;;;;;;;;;9.90;79.98;102105.97;5050380;28;19971;-73
2023/05/21 00:11:15;;;;;;;;;;;;;;;9.84;79.97;102110.38;5065691;28;20494;-72
2023/05/21 00:13:41;;;;;;;;;;;;;;;9.82;80.67;102111.63;5056047;28;19967;-74
2023/05/21 00:16:07;;;;;;;;;;;;;;;9.81;80.75;102105.47;5062042;28;19953;-73
2023/05/21 00:18:33;;;;;;;;;;;;;;;9.84;81.54;102101.53;5050839;28;19932;-73
2023/05/21 00:20:59;;;;;;;;;;;;;;;9.80;81.03;102101.16;5049230;28;20317;-72
2023/05/21 00:23:25;;;;;;;;;;;;;;;9.81;80.71;102110.81;5049971;28;20040;-71
2023/05/21 00:25:51;;;;;;;;;;;;;;;9.75;80.86;102114.41;5061277;28;20042;-71
2023/05/21 00:28:17;;;;;;;;;;;;;;;9.67;81.21;102108.59;5033722;28;19931;-74
2023/05/21 00:30:42;;;;;;;;;;;;;;;9.60;81.26;102105.19;5055893;28;19940;-75
2023/05/21 00:33:09;;;;;;;;;;;;;;;9.54;81.33;102107.75;5064370;28;20038;-74
2023/05/21 00:35:35;;;;;;;;;;;;;;;9.50;81.73;102090.53;5050745;28;19955;-75
2023/05/21 00:38:00;;;;;;;;;;;;;;;9.43;81.62;102089.81;5043362;28;19937;-72
2023/05/21 00:40:26;;;;;;;;;;;;;;;9.55;81.38;102088.00;5067439;28;19933;-74
2023/05/21 00:42:56;;;;;;;;;;;;;;;9.59;81.77;102088.34;5063260;28;19935;-74
2023/05/21 00:45:24;;;;;;;;;;;;;;;9.66;80.71;102094.41;5066786;28;19956;-75
2023/05/21 00:47:53;;;;;;;;;;;;;;;9.66;80.80;102077.53;5064790;28;19987;-74
2023/05/21 00:50:19;;;;;;;;;;;;;;;9.67;81.05;102090.66;5056261;28;19936;-72
2023/05/21 00:52:45;;;;;;;;;;;;;;;9.65;81.21;102086.59;5050621;28;19937;-73
2023/05/21 00:55:12;;;;;;;;;;;;;;;9.60;80.98;102081.13;5067957;28;19957;-74
2023/05/21 00:57:38;;;;;;;;;;;;;;;9.71;80.29;102089.19;5051534;28;20407;-74
2023/05/21 01:00:07;;;;;;;;;;;;;;;9.68;81.01;102089.63;5064139;28;19928;-74
2023/05/21 01:02:36;;;;;;;;;;;;;;;9.76;80.34;102085.81;5066099;28;19936;-73
2023/05/21 01:05:06;;;;;;;;;;;;;;;9.71;80.35;102083.81;5065079;28;20031;-72
2023/05/21 01:07:33;;;;;;;;;;;;;;;9.71;80.34;102070.44;5063884;28;20001;-72
2023/05/21 01:10:04;;;;;;;;;;;;;;;9.71;80.39;102075.00;5062720;28;20002;-73
2023/05/21 01:12:30;;;;;;;;;;;;;;;9.68;79.90;102070.09;5064549;28;20021;-73
2023/05/21 01:14:58;;;;;;;;;;;;;;;9.72;80.42;102077.44;5060829;28;19959;-73
2023/05/21 01:17:24;;;;;;;;;;;;;;;9.84;79.58;102074.78;5059300;28;19938;-74
2023/05/21 01:19:51;;;;;;;;;;;;;;;9.66;80.79;102069.50;5049527;28;20512;-74
2023/05/21 01:22:19;;;;;;;;;;;;;;;9.56;80.99;102068.22;5064119;28;20359;-74
2023/05/21 01:24:48;;;;;;;;;;;;;;;9.56;80.91;102078.13;5043205;28;19971;-73
2023/05/21 01:27:14;;;;;;;;;;;;;;;9.65;80.28;102075.91;5061625;28;20353;-75
2023/05/21 01:29:40;;;;;;;;;;;;;;;9.58;80.47;102071.47;5059077;28;19938;-73
2023/05/21 01:32:14;;;;;;;;;;;;;;;9.51;81.36;102067.28;5061784;28;20385;-73
2023/05/21 01:34:47;;;;;;;;;;;;;;;9.45;81.30;102071.69;5065572;28;20481;-73
2023/05/21 01:37:26;;;;;;;;;;;;;;;9.40;81.34;102063.53;5053389;28;19934;-73
2023/05/21 01:39:54;;;;;;;;;;;;;;;9.43;81.58;102064.94;5048883;28;20056;-73
2023/05/21 01:42:21;;;;;;;;;;;;;;;9.40;82.01;102065.38;5059234;28;19987;-73
2023/05/21 01:44:48;;;;;;;;;;;;;;;9.42;81.61;102066.81;5051053;28;19954;-73
2023/05/21 01:47:15;;;;;;;;;;;;;;;9.31;82.03;102056.91;5063216;28;20282;-73
2023/05/21 01:49:41;;;;;;;;;;;;;;;9.27;82.46;102058.38;5045480;28;19937;-73
2023/05/21 01:52:06;;;;;;;;;;;;;;;9.24;82.62;102058.84;5067658;28;19933;-73
2023/05/21 01:54:32;;;;;;;;;;;;;;;9.32;82.30;102047.81;5034467;28;19968;-73
2023/05/21 01:56:58;;;;;;;;;;;;;;;9.39;82.01;102055.75;5065132;28;19941;-73
2023/05/21 01:59:24;;;;;;;;;;;;;;;9.33;82.48;102052.13;5067064;28;19939;-74
2023/05/21 02:01:50;;;;;;;;;;;;;;;9.35;82.55;102049.22;5035909;28;20470;-75
2023/05/21 02:04:15;;;;;;;;;;;;;;;9.40;82.18;102050.16;5051845;28;20371;-74
2023/05/21 02:06:41;;;;;;;;;;;;;;;9.38;82.45;102049.59;5051552;28;20421;-73
2023/05/21 02:09:07;;;;;;;;;;;;;;;9.48;82.06;102055.19;5066600;28;19938;-74
2023/05/21 02:11:33;;;;;;;;;;;;;;;9.61;81.34;102040.78;5060451;28;20038;-74
2023/05/21 02:13:59;;;;;;;;;;;;;;;9.76;80.71;102041.16;5061073;28;19956;-74
2023/05/21 02:16:24;;;;;;;;;;;;;;;9.61;81.21;102037.28;5056612;28;20001;-73
2023/05/21 02:18:52;;;;;;;;;;;;;;;9.48;81.74;102044.50;5058523;28;19935;-72
2023/05/21 02:21:19;;;;;;;;;;;;;;;9.49;81.73;102039.97;5055203;28;19932;-74
2023/05/21 02:23:44;;;;;;;;;;;;;;;9.40;82.33;102041.31;5049996;28;19943;-75
2023/05/21 02:26:10;;;;;;;;;;;;;;;9.52;81.82;102039.50;5042020;28;19958;-74
2023/05/21 02:28:35;;;;;;;;;;;;;;;9.41;82.47;102033.06;5052424;28;20273;-74
2023/05/21 02:31:01;;;;;;;;;;;;;;;9.32;82.56;102030.97;5027048;28;20012;-73
2023/05/21 02:33:26;;;;;;;;;;;;;;;9.30;82.84;102025.88;5043825;28;19964;-73
2023/05/21 02:35:52;;;;;;;;;;;;;;;9.24;83.06;102021.44;5049955;28;20001;-73
2023/05/21 02:38:18;;;;;;;;;;;;;;;9.08;83.28;102019.38;5067517;28;19939;-73
2023/05/21 02:40:44;;;;;;;;;;;;;;;9.06;84.03;102008.13;5068084;28;20011;-74
2023/05/21 02:43:10;;;;;;;;;;;;;;;9.01;83.72;102015.00;5046694;28;20413;-73
2023/05/21 02:45:35;;;;;;;;;;;;;;;9.10;83.76;102020.00;5059954;28;19953;-75
2023/05/21 02:48:01;;;;;;;;;;;;;;;9.25;83.29;102017.72;5050227;28;20037;-74
2023/05/21 02:50:28;;;;;;;;;;;;;;;9.20;83.12;102014.91;5051984;28;19939;-73
2023/05/21 02:52:58;;;;;;;;;;;;;;;9.20;83.30;102014.91;5054252;28;20018;-74
2023/05/21 02:55:24;;;;;;;;;;;;;;;9.10;83.68;102003.97;5054569;28;20360;-74
2023/05/21 02:57:50;;;;;;;;;;;;;;;9.09;83.97;102008.50;5060700;28;20444;-75
2023/05/21 03:00:16;;;;;;;;;;;;;;;9.01;84.07;102009.66;5052132;28;19982;-74
2023/05/21 03:02:41;;;;;;;;;;;;;;;8.98;84.29;102001.25;5051410;28;20001;-73
2023/05/21 03:05:07;;;;;;;;;;;;;;;8.96;84.45;102000.69;5047594;28;20412;-74
2023/05/21 03:07:33;;;;;;;;;;;;;;;8.93;84.65;101996.59;5063331;28;19933;-74
2023/05/21 03:09:58;;;;;;;;;;;;;;;9.05;84.39;101993.94;5051748;28;19980;-74
2023/05/21 03:12:24;;;;;;;;;;;;;;;8.90;84.88;102007.75;5051048;28;19933;-74
2023/05/21 03:14:50;;;;;;;;;;;;;;;9.02;84.62;102013.94;5044318;28;19990;-75
2023/05/21 03:17:16;;;;;;;;;;;;;;;8.86;84.74;102001.22;5067149;28;19932;-74
2023/05/21 03:19:42;;;;;;;;;;;;;;;8.83;85.52;102007.03;5046965;28;20394;-76
2023/05/21 03:22:08;;;;;;;;;;;;;;;8.82;85.78;102010.75;5049569;28;19944;-75
2023/05/21 03:24:36;;;;;;;;;;;;;;;8.72;85.80;102013.13;5061215;28;20419;-75
2023/05/21 03:27:05;;;;;;;;;;;;;;;8.67;86.15;102015.66;5062852;28;19937;-74
2023/05/21 03:29:31;;;;;;;;;;;;;;;8.81;85.76;102009.13;5060673;28;19971;-75
2023/05/21 03:31:57;;;;;;;;;;;;;;;8.71;86.05;102000.81;5043500;28;19978;-75
2023/05/21 03:34:22;;;;;;;;;;;;;;;8.78;86.01;101998.06;5041427;28;19959;-75
2023/05/21 03:36:48;;;;;;;;;;;;;;;8.72;86.44;102008.59;5039034;28;19939;-75
2023/05/21 03:39:16;;;;;;;;;;;;;;;8.89;86.05;101999.97;5043304;28;19933;-75
2023/05/21 03:41:42;;;;;;;;;;;;;;;8.84;85.89;102003.31;5063931;28;19938;-75
2023/05/21 03:44:12;;;;;;;;;;;;;;;8.87;86.04;102000.16;5052040;28;19948;-75
2023/05/21 03:46:52;;;;;;;;;;;;;;;8.98;86.06;102004.75;5046546;28;19936;-73
2023/05/21 03:49:24;;;;;;;;;;;;;;;8.97;86.04;101989.75;5048351;28;19962;-76
2023/05/21 03:51:55;;;;;;;;;;;;;;;8.96;86.11;101987.31;5036758;28;19940;-75
2023/05/21 03:54:21;;;;;;;;;;;;;;;9.12;85.47;101988.50;5031629;28;20012;-75
2023/05/21 03:56:49;;;;;;;;;;;;;;;9.26;85.20;101989.94;5053044;28;19964;-76
2023/05/21 03:59:14;;;;;;;;;;;;;;;9.29;85.33;101986.81;5049014;28;20311;-75
2023/05/21 04:01:42;;;;;;;;;;;;;;;9.32;85.18;101981.00;5046123;28;20414;-74
2023/05/21 04:04:10;;;;;;;;;;;;;;;9.49;84.91;101978.47;5046137;28;19939;-74
2023/05/21 04:06:37;;;;;;;;;;;;;;;9.71;83.46;101984.03;5050173;28;19935;-74
2023/05/21 04:09:03;;;;;;;;;;;;;;;9.80;83.54;101982.63;5061824;28;19940;-73
2023/05/21 04:11:30;;;;;;;;;;;;;;;9.98;83.17;101979.81;5049499;28;19936;-74
2023/05/21 04:13:55;;;;;;;;;;;;;;;10.06;82.33;101984.81;5047257;28;19964;-73
2023/05/21 04:16:23;;;;;;;;;;;;;;;10.16;81.98;101986.91;5064972;28;19962;-73
2023/05/21 04:18:50;;;;;;;;;;;;;;;10.33;81.91;101976.28;5065537;28;19935;-73
2023/05/21 04:21:15;;;;;;;;;;;;;;;10.38;81.66;101989.78;5065240;28;19937;-73
2023/05/21 04:23:42;;;;;;;;;;;;;;;10.53;80.60;101984.72;5034860;28;20410;-74
2023/05/21 04:26:28;;;;;;;;;;;;;;;10.61;80.00;101970.94;5055536;28;19998;-74
2023/05/21 04:28:54;;;;;;;;;;;;;;;10.92;79.34;101974.97;5054863;28;19946;-73
2023/05/21 04:31:21;;;;;;;;;;;;;;;10.88;79.06;101979.19;5063233;28;20019;-74
2023/05/21 04:33:48;;;;;;;;;;;;;;;10.94;79.15;101980.91;5051914;28;19965;-74
2023/05/21 04:36:16;;;;;;;;;;;;;;;11.06;79.28;101982.72;5045611;28;20026;-73
2023/05/21 04:38:42;;;;;;;;;;;;;;;11.17;78.13;101989.84;5044478;28;19952;-74
2023/05/21 04:41:09;;;;;;;;;;;;;;;11.17;78.44;101982.63;5060177;28;19935;-73
2023/05/21 04:43:42;;;;;;;;;;;;;;;11.19;78.27;101975.16;5053959;28;19935;-72
2023/05/21 04:46:08;;;;;;;;;;;;;;;11.17;79.02;101979.94;5050352;28;20006;-72
2023/05/21 04:48:34;;;;;;;;;;;;;;;11.27;78.67;101975.81;5052308;28;20424;-73
2023/05/21 04:51:00;;;;;;;;;;;;;;;11.24;78.27;101976.28;5048344;28;20278;-72
2023/05/21 04:53:26;;;;;;;;;;;;;;;11.26;78.38;101982.25;5046387;28;19938;-73
2023/05/21 04:55:51;;;;;;;;;;;;;;;11.35;78.54;101978.09;5052527;28;19961;-73
2023/05/21 04:58:18;;;;;;;;;;;;;;;11.66;77.13;101974.81;5050892;28;20008;-73
2023/05/21 05:00:45;;;;;;;;;;;;;;;11.53;77.73;101979.72;5053226;28;20035;-73
2023/05/21 05:03:11;;;;;;;;;;;;;;;11.52;77.53;101980.78;5054410;28;19940;-73
2023/05/21 05:05:37;;;;;;;;;;;;;;;11.64;77.58;101973.41;5053012;28;19977;-73
2023/05/21 05:08:03;;;;;;;;;;;;;;;11.68;77.69;101971.88;5052809;28;19945;-73
2023/05/21 05:10:29;;;;;;;;;;;;;;;11.69;77.69;101984.22;5049291;28;19937;-72
2023/05/21 05:12:55;;;;;;;;;;;;;;;11.93;76.17;101974.13;5036844;28;19933;-71
2023/05/21 05:15:20;;;;;;;;;;;;;;;11.84;77.15;101978.28;5061038;28;19956;-72
2023/05/21 05:17:49;;;;;;;;;;;;;;;11.85;76.88;101977.22;5065346;28;19949;-71
2023/05/21 05:20:15;;;;;;;;;;;;;;;11.75;77.23;101976.00;5070985;28;19939;-72
2023/05/21 05:22:41;;;;;;;;;;;;;;;11.82;76.96;101964.31;5050472;28;20254;-73
2023/05/21 05:25:07;;;;;;;;;;;;;;;11.93;77.19;101964.22;5038029;28;20426;-75
2023/05/21 05:27:32;;;;;;;;;;;;;;;11.93;77.58;101966.09;5049614;28;20013;-75
2023/05/21 05:29:58;;;;;;;;;;;;;;;12.04;76.57;101970.50;5065983;28;20062;-76
2023/05/21 05:32:24;;;;;;;;;;;;;;;12.13;76.75;101976.28;5050634;28;19941;-73
2023/05/21 05:34:50;;;;;;;;;;;;;;;12.34;76.46;101980.81;5051930;28;19973;-72
2023/05/21 05:37:15;;;;;;;;;;;;;;;12.48;75.15;101978.56;5034173;28;19930;-72
2023/05/21 05:39:42;;;;;;;;;;;;;;;12.68;75.22;101981.47;5051682;28;19942;-74
2023/05/21 05:42:07;;;;;;;;;;;;;;;12.73;74.34;101973.44;5067539;28;19943;-72
2023/05/21 05:44:33;;;;;;;;;;;;;;;12.91;74.49;101968.78;5061974;28;19950;-74
2023/05/21 05:46:59;;;;;;;;;;;;;;;13.18;73.69;101972.22;5064330;28;19979;-73
2023/05/21 05:49:26;;;;;;;;;;;;;;;13.43;74.27;101970.84;5055874;28;19935;-75
2023/05/21 05:51:52;;;;;;;;;;;;;;;13.40;72.78;101966.75;5045571;28;20000;-75
2023/05/21 05:54:18;;;;;;;;;;;;;;;13.43;72.19;101960.06;5072128;28;20585;-74
2023/05/21 05:56:44;;;;;;;;;;;;;;;13.48;72.77;101960.94;5049987;28;19953;-75
2023/05/21 05:59:10;;;;;;;;;;;;;;;13.58;72.98;101965.56;5064599;28;20651;-73
2023/05/21 06:01:37;;;;;;;;;;;;;;;13.75;71.74;101966.19;5034464;28;19936;-74
2023/05/21 06:04:03;;;;;;;;;;;;;;;13.90;72.06;101960.88;5047352;28;19935;-74
2023/05/21 06:06:30;;;;;;;;;;;;;;;14.01;72.11;101955.53;5051032;28;20434;-73
2023/05/21 06:08:56;;;;;;;;;;;;;;;14.19;71.07;101968.56;5030963;28;19937;-76
2023/05/21 06:11:22;;;;;;;;;;;;;;;14.24;70.83;101965.88;5050392;28;20239;-76
2023/05/21 06:13:48;;;;;;;;;;;;;;;14.15;71.47;101959.38;5047441;28;20681;-74
2023/05/21 06:16:15;;;;;;;;;;;;;;;14.20;72.06;101964.78;5054339;28;19948;-73
2023/05/21 06:18:41;;;;;;;;;;;;;;;14.03;71.77;101959.59;5047466;28;19950;-73
2023/05/21 06:21:07;;;;;;;;;;;;;;;14.23;71.88;101958.88;5062340;28;19982;-73
2023/05/21 06:23:35;;;;;;;;;;;;;;;14.33;71.79;101966.16;5061644;28;20045;-75
2023/05/21 06:26:01;;;;;;;;;;;;;;;14.40;71.75;101967.53;5047112;28;19952;-75
2023/05/21 06:28:26;;;;;;;;;;;;;;;14.43;70.88;101966.22;5045781;28;19941;-75
2023/05/21 06:30:52;;;;;;;;;;;;;;;14.75;71.61;101966.84;5050788;28;20043;-75
2023/05/21 06:33:18;;;;;;;;;;;;;;;14.79;71.82;101969.81;5048362;28;20049;-74
2023/05/21 06:35:44;;;;;;;;;;;;;;;14.74;71.03;101961.72;5034036;28;20416;-74
2023/05/21 06:38:10;;;;;;;;;;;;;;;14.80;70.89;101962.53;5047624;28;20449;-74
2023/05/21 06:40:36;;;;;;;;;;;;;;;15.09;69.78;101962.81;5034498;28;19932;-74
2023/05/21 06:43:03;;;;;;;;;;;;;;;14.90;70.45;101959.84;5064910;28;20303;-74
2023/05/21 06:45:38;;;;;;;;;;;;;;;15.27;70.19;101970.38;5062266;28;19987;-74
2023/05/21 06:48:21;;;;;;;;;;;;;;;15.32;70.00;101959.56;5060148;28;19994;-73
2023/05/21 06:50:47;;;;;;;;;;;;;;;15.33;70.01;101966.59;5033696;28;20453;-75
2023/05/21 06:53:15;;;;;;;;;;;;;;;15.25;69.56;101962.56;5059597;28;19939;-74
2023/05/21 06:55:44;;;;;;;;;;;;;;;15.50;69.27;101945.50;5049997;28;19953;-74
2023/05/21 06:58:34;;;;;;;;;;;;;;;15.65;68.54;101962.78;5040124;28;19936;-73
2023/05/21 07:01:00;;;;;;;;;;;;;;;15.83;68.15;101954.09;5060497;28;19939;-74
2023/05/21 07:03:26;;;;;;;;;;;;;;;16.24;67.32;101951.22;5049738;28;19929;-73
2023/05/21 07:05:56;;;;;;;;;;;;;;;16.15;67.23;101950.19;5062906;28;19953;-73
2023/05/21 07:08:21;;;;;;;;;;;;;;;16.15;68.10;101951.00;5062449;28;19932;-74
2023/05/21 07:10:47;;;;;;;;;;;;;;;16.09;67.25;101944.78;5051241;28;19987;-73
2023/05/21 07:13:13;;;;;;;;;;;;;;;16.20;67.81;101947.47;5057935;28;20011;-75
2023/05/21 07:15:38;;;;;;;;;;;;;;;16.67;68.63;101944.22;5044140;28;19958;-73
2023/05/21 07:18:04;;;;;;;;;;;;;;;16.78;67.04;101947.66;5057060;28;19937;-73
2023/05/21 07:20:30;;;;;;;;;;;;;;;16.92;65.58;101944.03;5026826;28;19938;-74
2023/05/21 07:22:59;;;;;;;;;;;;;;;16.94;66.02;101946.47;5070413;28;20027;-73
2023/05/21 07:25:24;;;;;;;;;;;;;;;16.68;67.26;101942.31;5054461;28;19928;-75
2023/05/21 07:27:50;;;;;;;;;;;;;;;17.09;65.71;101946.34;5055015;28;20013;-74
2023/05/21 07:30:16;;;;;;;;;;;;;;;17.23;67.99;101932.16;5046958;28;20306;-74
2023/05/21 07:32:41;;;;;;;;;;;;;;;17.13;65.85;101928.41;5066951;28;20396;-74
2023/05/21 07:35:07;;;;;;;;;;;;;;;17.57;64.76;101929.34;5077631;28;20326;-73
2023/05/21 07:37:33;;;;;;;;;;;;;;;17.51;66.00;101930.50;5067211;28;19935;-73
2023/05/21 07:39:59;;;;;;;;;;;;;;;18.07;64.69;101929.88;5055827;28;20053;-73
2023/05/21 07:42:25;;;;;;;;;;;;;;;18.60;63.21;101925.03;5055388;28;20006;-73
2023/05/21 07:44:52;;;;;;;;;;;;;;;18.80;62.78;101932.09;5061215;28;19955;-73
2023/05/21 07:47:17;;;;;;;;;;;;;;;18.49;61.62;101924.41;5049599;28;19960;-72
2023/05/21 07:49:43;;;;;;;;;;;;;;;18.81;62.79;101929.06;5042003;28;19992;-74
2023/05/21 07:52:09;;;;;;;;;;;;;;;18.64;61.61;101930.69;5032407;28;19943;-74
2023/05/21 07:54:35;;;;;;;;;;;;;;;18.57;62.52;101922.13;5067128;28;19954;-74
2023/05/21 07:57:01;;;;;;;;;;;;;;;18.39;63.04;101919.13;5048922;28;19943;-74
2023/05/21 07:59:47;;;;;;;;;;;;;;;18.61;63.37;101918.50;5063265;28;19945;-74
2023/05/21 08:02:13;;;;;;;;;;;;;;;18.60;62.30;101925.03;5066564;28;20304;-73
2023/05/21 08:04:39;;;;;;;;;;;;;;;18.35;62.88;101920.00;5049553;28;19961;-73
2023/05/21 08:07:05;;;;;;;;;;;;;;;18.24;63.68;101919.34;5048297;28;19958;-74
2023/05/21 08:09:31;;;;;;;;;;;;;;;18.52;63.37;101904.03;5046442;28;19941;-74
2023/05/21 08:11:57;;;;;;;;;;;;;;;18.49;62.98;101912.72;5062208;28;19935;-74
2023/05/21 08:14:22;;;;;;;;;;;;;;;18.77;63.31;101928.06;5047928;28;19993;-73
2023/05/21 08:16:48;;;;;;;;;;;;;;;18.84;63.05;101913.31;5059410;28;19937;-73
2023/05/21 08:19:14;;;;;;;;;;;;;;;18.75;63.04;101902.31;5049285;28;19997;-74
2023/05/21 08:21:40;;;;;;;;;;;;;;;19.09;61.95;101919.09;5052818;28;20398;-73
2023/05/21 08:24:05;;;;;;;;;;;;;;;18.72;63.78;101911.06;5061960;28;20290;-73
2023/05/21 08:26:31;;;;;;;;;;;;;;;18.86;62.62;101902.97;5052558;28;19988;-74
2023/05/21 08:28:56;;;;;;;;;;;;;;;18.97;64.07;101915.28;5052045;28;20324;-74
2023/05/21 08:31:22;;;;;;;;;;;;;;;19.24;64.13;101912.63;5061144;28;19935;-74
2023/05/21 08:33:50;;;;;;;;;;;;;;;19.02;64.02;101912.44;5048214;28;20751;-73
2023/05/21 08:36:17;;;;;;;;;;;;;;;18.59;63.96;101909.88;5048076;28;20056;-73
2023/05/21 08:38:51;;;;;;;;;;;;;;;19.27;64.03;101908.47;5060149;28;19934;-74
2023/05/21 08:41:25;;;;;;;;;;;;;;;19.07;63.58;101909.66;5061794;28;20031;-73
2023/05/21 08:43:55;;;;;;;;;;;;;;;19.33;62.81;101918.97;5053354;28;19980;-74
2023/05/21 08:46:22;;;;;;;;;;;;;;;19.45;62.99;101906.81;5048279;28;19963;-74
2023/05/21 08:48:49;;;;;;;;;;;;;;;19.40;62.32;101912.31;5063879;28;20018;-74
2023/05/21 08:51:15;;;;;;;;;;;;;;;19.42;63.28;101902.75;5065824;28;19960;-73
2023/05/21 08:53:46;;;;;;;;;;;;;;;19.12;62.75;101896.00;5063442;28;19958;-73
2023/05/21 08:56:16;;;;;;;;;;;;;;;19.39;62.87;101908.81;5063876;28;23900;-73
2023/05/21 08:58:50;;;;;;;;;;;;;;;19.88;61.89;101885.56;5044552;28;19991;-73
2023/05/21 09:01:18;;;;;;;;;;;;;;;20.09;61.07;101902.25;5050108;28;19939;-73
2023/05/21 09:03:46;;;;;;;;;;;;;;;20.17;60.94;101896.88;5057381;28;19932;-74
2023/05/21 09:06:12;;;;;;;;;;;;;;;20.58;61.03;101895.16;5051157;28;19950;-73
2023/05/21 09:08:42;;;;;;;;;;;;;;;20.53;61.68;101898.81;5035311;28;20000;-73
2023/05/21 09:11:20;;;;;;;;;;;;;;;20.60;60.02;101890.22;5025176;28;20968;-72
2023/05/21 09:13:52;;;;;;;;;;;;;;;20.70;60.52;101898.13;5066692;28;19957;-74
2023/05/21 09:16:25;;;;;;;;;;;;;;;20.34;60.08;101898.97;5060195;28;20079;-73
2023/05/21 09:18:51;;;;;;;;;;;;;;;20.49;61.52;101894.28;5057166;28;20010;-73
2023/05/21 09:21:27;;;;;;;;;;;;;;;20.64;62.19;101904.81;5048560;28;19938;-74
2023/05/21 09:24:08;;;;;;;;;;;;;;;21.30;59.52;101896.91;5046894;28;19942;-72
2023/05/21 09:26:34;;;;;;;;;;;;;;;21.23;59.10;101902.75;5065743;28;19961;-74
2023/05/21 09:29:03;;;;;;;;;;;;;;;20.93;59.47;101898.91;5062831;28;20020;-73
2023/05/21 09:31:28;;;;;;;;;;;;;;;21.08;60.27;101903.19;5062316;28;20360;-74
2023/05/21 09:33:54;;;;;;;;;;;;;;;21.38;58.48;101899.66;5058850;28;19958;-74
2023/05/21 09:36:21;;;;;;;;;;;;;;;21.42;59.18;101899.84;5062748;28;19959;-73
2023/05/21 09:38:47;;;;;;;;;;;;;;;21.91;58.03;101895.16;5063069;28;19936;-74
2023/05/21 09:41:13;;;;;;;;;;;;;;;22.20;59.00;101905.47;5075990;28;19933;-74
2023/05/21 09:43:43;;;;;;;;;;;;;;;22.23;57.17;101899.41;5047671;28;19935;-73
2023/05/21 09:46:09;;;;;;;;;;;;;;;22.44;56.13;101894.09;5062476;28;20444;-74
2023/05/21 09:48:36;;;;;;;;;;;;;;;22.37;56.98;101891.84;5061408;28;19935;-74
2023/05/21 09:51:16;;;;;;;;;;;;;;;22.61;56.47;101900.34;5040797;28;20563;-73
2023/05/21 09:53:52;;;;;;;;;;;;;;;23.32;53.76;101893.59;5029677;28;20374;-72
2023/05/21 09:56:21;;;;;;;;;;;;;;;23.01;56.41;101889.19;5056323;28;19996;-72
2023/05/21 09:58:47;;;;;;;;;;;;;;;22.61;55.46;101892.13;5039971;28;19937;-74
2023/05/21 10:01:12;;;;;;;;;;;;;;;22.33;56.18;101879.97;5044276;28;20463;-72
2023/05/21 10:03:39;;;;;;;;;;;;;;;23.21;58.04;101884.94;5047621;28;19939;-74
2023/05/21 10:06:07;;;;;;;;;;;;;;;23.59;54.92;101886.88;5058930;28;19957;-73
2023/05/21 10:08:35;;;;;;;;;;;;;;;23.28;53.74;101884.44;5058213;28;20313;-73
2023/05/21 10:11:03;;;;;;;;;;;;;;;23.41;54.33;101886.16;5044027;28;19940;-74
2023/05/21 10:13:29;;;;;;;;;;;;;;;23.01;55.25;101877.47;5050302;28;20447;-73
2023/05/21 10:15:58;;;;;;;;;;;;;;;22.99;56.06;101875.06;5042156;28;19952;-71
2023/05/21 10:18:23;;;;;;;;;;;;;;;23.48;54.01;101875.50;5041440;28;20388;-73
2023/05/21 10:20:50;;;;;;;;;;;;;;;24.39;53.17;101868.50;5058538;28;19944;-72
2023/05/21 10:23:16;;;;;;;;;;;;;;;24.08;51.84;101874.34;5061888;28;20039;-73
2023/05/21 10:25:42;;;;;;;;;;;;;;;24.05;52.26;101871.47;5063338;28;19956;-74
2023/05/21 10:28:08;;;;;;;;;;;;;;;23.94;53.58;101865.59;5059132;28;19939;-74
2023/05/21 10:30:35;;;;;;;;;;;;;;;24.03;53.70;101862.78;5045344;28;20328;-73
2023/05/21 10:33:01;;;;;;;;;;;;;;;23.66;52.93;101855.16;5049755;28;20043;-73
2023/05/21 10:35:27;;;;;;;;;;;;;;;24.48;54.57;101846.50;5081423;28;20059;-74
2023/05/21 10:37:53;;;;;;;;;;;;;;;24.70;52.19;101846.09;5055991;28;20357;-74
2023/05/21 10:40:18;;;;;;;;;;;;;;;24.74;54.33;101843.50;5062575;28;20035;-74
2023/05/21 10:43:03;;;;;;;;;;;;;;;24.01;52.21;101838.50;5063403;28;20021;-74
2023/05/21 10:45:41;;;;;;;;;;;;;;;24.04;52.45;101840.56;5060300;28;19956;-74
2023/05/21 10:48:07;;;;;;;;;;;;;;;24.81;52.00;101830.03;5058660;28;20011;-75
2023/05/21 10:50:49;;;;;;;;;;;;;;;24.80;52.33;101833.13;5057093;28;19997;-74
2023/05/21 10:53:34;;;;;;;;;;;;;;;24.85;51.87;101832.88;5057475;28;20022;-75
2023/05/21 10:56:12;;;;;;;;;;;;;;;25.43;49.15;101830.88;5051511;28;19968;-75
2023/05/21 10:58:50;;;;;;;;;;;;;;;24.99;50.96;101816.91;5060513;28;20039;-75
2023/05/21 11:01:18;;;;;;;;;;;;;;;24.74;51.17;101825.13;5068739;28;20326;-74
2023/05/21 11:03:45;;;;;;;;;;;;;;;24.96;50.30;101821.13;5066848;28;19940;-75
2023/05/21 11:06:10;;;;;;;;;;;;;;;24.87;50.44;101831.41;5045389;28;20359;-75
2023/05/21 11:08:37;;;;;;;;;;;;;;;25.20;51.09;101827.78;5048723;28;19940;-74
2023/05/21 11:11:03;;;;;;;;;;;;;;;25.20;50.16;101820.41;5059512;28;19944;-72
2023/05/21 11:13:47;;;;;;;;;;;;;;;24.64;50.93;101822.78;5033412;28;20019;-76
2023/05/21 11:16:16;;;;;;;;;;;;;;;25.48;50.70;101816.94;5032641;28;20004;-75
2023/05/21 11:18:42;;;;;;;;;;;;;;;25.43;50.84;101822.66;5046327;28;20022;-73
2023/05/21 11:21:08;;;;;;;;;;;;;;;25.49;49.39;101816.59;5039156;28;20383;-74
2023/05/21 11:23:49;;;;;;;;;;;;;;;25.79;50.11;101806.16;5037722;28;20327;-76
2023/05/21 11:26:15;;;;;;;;;;;;;;;25.44;50.54;101811.34;5037209;28;19990;-75
2023/05/21 11:28:40;;;;;;;;;;;;;;;24.80;51.40;101805.72;5041029;28;20059;-74
2023/05/21 11:31:21;;;;;;;;;;;;;;;24.65;51.67;101801.69;5048813;28;19936;-75
2023/05/21 11:33:46;;;;;;;;;;;;;;;25.17;50.82;101804.63;5048216;28;19943;-75
2023/05/21 11:36:12;;;;;;;;;;;;;;;25.11;51.27;101808.72;5032353;28;19952;-74
2023/05/21 11:38:38;;;;;;;;;;;;;;;24.50;51.85;101800.41;5044937;28;19944;-74
2023/05/21 11:41:04;;;;;;;;;;;;;;;24.99;52.28;101801.25;5041958;28;19940;-75
2023/05/21 11:43:30;;;;;;;;;;;;;;;24.84;53.07;101807.41;5045651;28;19938;-75
2023/05/21 11:45:55;;;;;;;;;;;;;;;25.46;51.49;101800.00;5033658;28;19960;-75
2023/05/21 11:48:24;;;;;;;;;;;;;;;25.68;50.41;101793.25;5043907;28;19970;-75
2023/05/21 11:50:50;;;;;;;;;;;;;;;25.63;50.93;101797.03;5048322;28;19945;-73
2023/05/21 11:53:15;;;;;;;;;;;;;;;25.66;50.84;101799.06;5033457;28;19943;-74
2023/05/21 11:55:42;;;;;;;;;;;;;;;25.82;50.29;101794.50;5047674;28;19962;-75
2023/05/21 11:58:12;;;;;;;;;;;;;;;25.95;52.46;101791.72;5045599;28;19933;-75
2023/05/21 12:00:39;;;;;;;;;;;;;;;25.53;50.65;101795.53;5041980;28;19936;-74
2023/05/21 12:03:05;;;;;;;;;;;;;;;25.31;51.31;101794.09;5016788;28;20610;-75
2023/05/21 12:05:42;;;;;;;;;;;;;;;25.53;50.64;101797.50;5051405;28;19954;-74
2023/05/21 12:08:09;;;;;;;;;;;;;;;25.82;50.47;101782.72;5027209;28;19938;-76
2023/05/21 12:10:38;;;;;;;;;;;;;;;25.88;49.94;101788.72;5048600;28;20306;-76
2023/05/21 12:13:08;;;;;;;;;;;;;;;25.83;50.79;101782.38;5048028;28;19986;-75
2023/05/21 12:15:34;;;;;;;;;;;;;;;25.41;49.48;101778.34;5026373;28;19955;-73
2023/05/21 12:17:59;;;;;;;;;;;;;;;25.15;51.13;101787.72;5047885;28;19937;-75
2023/05/21 12:20:26;;;;;;;;;;;;;;;25.55;51.95;101785.03;5048346;28;19935;-74
2023/05/21 12:22:52;;;;;;;;;;;;;;;25.57;47.46;101781.94;5053842;28;20314;-74
2023/05/21 12:25:21;;;;;;;;;;;;;;;25.54;48.33;101775.22;5058051;28;19962;-75
2023/05/21 12:27:48;;;;;;;;;;;;;;;25.36;49.69;101771.13;5042824;28;19966;-74
2023/05/21 12:30:13;;;;;;;;;;;;;;;25.72;48.09;101783.16;5051681;28;20429;-75
2023/05/21 12:32:42;;;;;;;;;;;;;;;26.13;48.25;101762.78;5040433;28;19997;-75
2023/05/21 12:35:08;;;;;;;;;;;;;;;25.95;46.57;101772.50;5042357;28;19966;-74
2023/05/21 12:37:34;;;;;;;;;;;;;;;25.91;46.94;101771.59;5048801;28;19958;-73
2023/05/21 12:40:01;;;;;;;;;;;;;;;26.16;47.02;101764.06;5033906;28;19940;-73
2023/05/21 12:42:29;;;;;;;;;;;;;;;25.83;48.06;101776.06;5054299;28;20028;-74